createdAt,value
2022-09-16T00:02:16.130Z,13.70
2022-09-16T00:06:22.020Z,13.60
2022-09-16T00:10:23.598Z,13.70
2022-09-16T00:14:25.294Z,13.60
2022-09-16T00:18:26.928Z,13.50
2022-09-16T00:22:28.632Z,13.40
2022-09-16T00:26:30.864Z,13.30
2022-09-16T00:30:32.949Z,13.30
2022-09-16T00:34:34.542Z,13.40
2022-09-16T00:38:36.234Z,13.30
2022-09-16T00:42:39.085Z,13.40
2022-09-16T00:46:44.060Z,13.40
2022-09-16T00:50:51.242Z,13.30
2022-09-16T00:54:53.378Z,13.30
2022-09-16T00:58:54.930Z,13.30
2022-09-16T01:02:56.559Z,13.30
2022-09-16T01:06:58.671Z,13.30
2022-09-16T01:11:00.343Z,13.30
2022-09-16T01:15:02.543Z,13.30
2022-09-16T01:19:04.109Z,13.30
2022-09-16T01:23:32.785Z,13.20
2022-09-16T01:27:40.353Z,13.10
2022-09-16T01:32:00.620Z,13.10
2022-09-16T01:36:21.270Z,13.10
2022-09-16T01:40:36.158Z,13.10
2022-09-16T01:44:39.257Z,13.00
2022-09-16T01:48:50.495Z,13.00
2022-09-16T01:53:04.803Z,12.90
2022-09-16T01:57:26.595Z,12.90
2022-09-16T02:01:32.239Z,12.90
2022-09-16T02:05:42.877Z,12.80
2022-09-16T02:09:48.712Z,12.90
2022-09-16T02:14:08.823Z,12.90
2022-09-16T02:18:14.519Z,12.90
2022-09-16T02:22:22.973Z,12.90
2022-09-16T02:26:27.273Z,12.80
2022-09-16T02:30:28.970Z,12.80
2022-09-16T02:34:32.608Z,12.80
2022-09-16T02:38:41.416Z,12.80
2022-09-16T02:42:43.067Z,12.90
2022-09-16T02:47:01.201Z,12.90
2022-09-16T02:51:09.333Z,12.80
2022-09-16T02:55:20.534Z,12.80
2022-09-16T02:59:22.455Z,12.70
2022-09-16T03:03:24.289Z,12.80
2022-09-16T03:07:26.250Z,12.70
2022-09-16T03:11:38.029Z,12.70
2022-09-16T03:15:39.595Z,12.70
2022-09-16T03:19:55.837Z,12.70
2022-09-16T03:24:08.188Z,12.70
2022-09-16T03:28:16.902Z,12.60
2022-09-16T03:32:23.808Z,12.60
2022-09-16T03:36:30.462Z,12.50
2022-09-16T03:40:32.970Z,12.50
2022-09-16T03:44:35.710Z,12.50
2022-09-16T03:48:37.336Z,12.50
2022-09-16T03:52:39.317Z,12.40
2022-09-16T03:56:41.244Z,12.30
2022-09-16T04:00:42.804Z,12.40
2022-09-16T04:04:44.380Z,12.30
2022-09-16T04:08:46.146Z,12.20
2022-09-16T04:12:47.650Z,12.20
2022-09-16T04:16:49.207Z,12.20
2022-09-16T04:20:50.806Z,12.10
2022-09-16T04:24:52.438Z,12.00
2022-09-16T04:28:57.086Z,12.10
2022-09-16T04:32:58.721Z,12.00
2022-09-16T04:37:00.406Z,11.90
2022-09-16T04:41:06.711Z,11.90
2022-09-16T04:45:08.460Z,11.90
2022-09-16T04:49:10.039Z,11.80
2022-09-16T04:53:11.585Z,11.80
2022-09-16T04:57:13.131Z,11.80
2022-09-16T05:01:16.727Z,11.80
2022-09-16T05:05:18.307Z,11.70
2022-09-16T05:09:22.609Z,11.70
2022-09-16T05:13:24.185Z,11.70
2022-09-16T05:17:49.335Z,11.80
2022-09-16T05:21:47.315Z,11.80
2022-09-16T05:25:48.814Z,11.90
2022-09-16T05:29:50.424Z,11.80
2022-09-16T05:34:02.418Z,11.90
2022-09-16T05:38:04.023Z,11.90
2022-09-16T05:42:05.737Z,11.90
2022-09-16T05:46:07.693Z,11.90
2022-09-16T05:50:09.346Z,11.90
2022-09-16T05:54:10.876Z,11.90
2022-09-16T05:58:12.421Z,12.00
2022-09-16T06:02:14.054Z,12.00
2022-09-16T06:06:26.042Z,12.10
2022-09-16T06:10:27.609Z,12.20
2022-09-16T06:14:29.257Z,12.10
2022-09-16T06:18:31.158Z,12.10
2022-09-16T06:22:32.720Z,12.20
2022-09-16T06:26:35.083Z,12.20
2022-09-16T06:30:37.021Z,12.20
2022-09-16T06:34:38.603Z,12.10
2022-09-16T06:38:40.546Z,12.20
2022-09-16T06:42:42.097Z,12.20
2022-09-16T06:46:44.191Z,12.10
2022-09-16T06:50:45.723Z,12.30
2022-09-16T06:54:47.601Z,12.30
2022-09-16T06:58:51.746Z,12.40
2022-09-16T07:02:53.538Z,12.60
2022-09-16T07:07:09.235Z,12.50
2022-09-16T07:11:21.486Z,12.60
2022-09-16T07:15:23.061Z,12.50
2022-09-16T07:19:25.057Z,12.40
2022-09-16T07:23:26.583Z,12.50
2022-09-16T07:27:29.516Z,12.80
2022-09-16T07:31:32.576Z,13.00
2022-09-16T07:35:34.183Z,12.90
2022-09-16T07:39:35.822Z,12.90
2022-09-16T07:43:37.988Z,12.70
2022-09-16T07:47:39.580Z,12.80
2022-09-16T07:51:41.507Z,12.90
2022-09-16T07:55:43.165Z,13.00
2022-09-16T07:59:44.796Z,13.00
2022-09-16T08:03:46.531Z,12.90
2022-09-16T08:07:48.058Z,13.00
2022-09-16T08:11:50.046Z,13.10
2022-09-16T08:15:52.988Z,13.40
2022-09-16T08:19:55.313Z,13.30
2022-09-16T08:23:57.495Z,13.40
2022-09-16T08:27:59.105Z,13.50
2022-09-16T08:32:00.782Z,13.60
2022-09-16T08:36:02.397Z,13.70
2022-09-16T08:40:05.427Z,13.60
2022-09-16T08:44:16.168Z,13.80
2022-09-16T08:48:28.503Z,13.50
2022-09-16T08:52:35.405Z,13.60
2022-09-16T08:56:39.460Z,13.60
2022-09-16T09:00:44.245Z,13.60
2022-09-16T09:04:45.942Z,13.50
2022-09-16T09:08:59.901Z,13.50
2022-09-16T09:13:08.973Z,13.60
2022-09-16T09:17:17.541Z,13.70
2022-09-16T09:21:27.255Z,13.70
2022-09-16T09:25:44.646Z,13.80
2022-09-16T09:29:58.813Z,14.00
2022-09-16T09:34:14.181Z,14.30
2022-09-16T09:38:29.558Z,14.00
2022-09-16T09:42:34.485Z,14.20
2022-09-16T09:46:45.200Z,14.10
2022-09-16T09:50:48.139Z,14.30
2022-09-16T09:54:50.975Z,14.10
2022-09-16T09:59:11.417Z,14.20
2022-09-16T10:03:14.718Z,14.40
2022-09-16T10:07:20.933Z,14.50
2022-09-16T10:11:24.190Z,14.50
2022-09-16T10:15:29.458Z,14.50
2022-09-16T10:19:32.675Z,14.30
2022-09-16T10:23:34.820Z,14.50
2022-09-16T10:27:37.514Z,14.30
2022-09-16T10:31:40.568Z,14.20
2022-09-16T10:35:51.357Z,14.20
2022-09-16T10:39:54.243Z,14.30
2022-09-16T10:44:00.528Z,14.20
2022-09-16T10:48:07.351Z,14.20
2022-09-16T10:52:14.242Z,14.60
2022-09-16T10:56:23.534Z,15.00
2022-09-16T11:00:28.465Z,14.80
2022-09-16T11:04:42.371Z,14.70
2022-09-16T11:08:53.058Z,14.70
2022-09-16T11:12:54.565Z,15.00
2022-09-16T11:17:04.838Z,14.90
2022-09-16T11:21:20.310Z,14.60
2022-09-16T11:25:40.167Z,14.40
2022-09-16T11:29:54.150Z,14.20
2022-09-16T11:34:06.745Z,14.20
2022-09-16T11:38:18.175Z,14.30
2022-09-16T11:42:26.086Z,14.60
2022-09-16T11:47:06.672Z,14.90
2022-09-16T11:51:08.250Z,14.80
2022-09-16T11:55:20.503Z,14.60
2022-09-16T11:59:40.713Z,15.10
2022-09-16T12:03:54.673Z,15.20
2022-09-16T12:08:22.633Z,15.60
2022-09-16T12:12:26.219Z,16.10
2022-09-16T12:16:33.474Z,15.70
2022-09-16T12:20:37.352Z,15.50
2022-09-16T12:24:52.412Z,15.20
2022-09-16T12:29:20.301Z,14.80
2022-09-16T12:33:23.715Z,14.50
2022-09-16T12:37:36.952Z,14.20
2022-09-16T12:41:41.666Z,13.70
2022-09-16T12:45:46.371Z,13.10
2022-09-16T12:50:16.399Z,13.10
2022-09-16T12:55:07.238Z,13.20
2022-09-16T12:59:24.585Z,13.60
2022-09-16T13:03:27.834Z,13.20
2022-09-16T13:07:32.636Z,13.20
2022-09-16T13:15:56.842Z,13.30
2022-09-16T13:20:17.483Z,12.90
2022-09-16T13:24:36.621Z,12.30
2022-09-16T13:28:45.665Z,11.50
2022-09-16T13:32:50.304Z,11.40
2022-09-16T13:36:52.277Z,11.10
2022-09-16T13:40:57.259Z,11.10
2022-09-16T13:44:58.813Z,11.30
2022-09-16T13:49:03.496Z,11.20
2022-09-16T13:53:09.042Z,11.60
2022-09-16T13:57:21.696Z,11.40
2022-09-16T14:01:36.978Z,11.60
2022-09-16T14:05:57.675Z,11.60
2022-09-16T14:10:01.458Z,11.50
2022-09-16T14:14:06.845Z,11.50
2022-09-16T14:18:12.577Z,11.90
2022-09-16T14:22:18.614Z,11.90
2022-09-16T14:26:21.431Z,11.90
2022-09-16T14:30:23.123Z,11.90
2022-09-16T14:34:33.621Z,11.50
2022-09-16T14:43:08.002Z,12.00
2022-09-16T14:47:29.346Z,12.30
2022-09-16T14:51:39.290Z,12.30
2022-09-16T14:55:48.260Z,12.10
2022-09-16T14:59:51.398Z,12.20
2022-09-16T15:03:55.461Z,12.40
2022-09-16T15:08:14.152Z,12.60
2022-09-16T15:12:36.404Z,12.80
2022-09-16T15:16:43.711Z,13.00
2022-09-16T15:20:49.750Z,13.20
2022-09-16T15:24:53.059Z,13.20
2022-09-16T15:28:56.546Z,13.20
2022-09-16T15:32:58.174Z,13.50
2022-09-16T15:36:59.823Z,13.40
2022-09-16T15:41:02.988Z,13.70
2022-09-16T15:45:13.827Z,13.30
2022-09-16T15:49:19.751Z,13.40
2022-09-16T15:53:30.451Z,13.30
2022-09-16T15:57:39.851Z,12.90
2022-09-16T16:01:52.543Z,12.50
2022-09-16T16:05:54.972Z,11.60
2022-09-16T16:10:10.273Z,10.50
2022-09-16T16:14:12.203Z,10.20
2022-09-16T16:18:13.737Z,10.70
2022-09-16T16:22:15.996Z,10.90
2022-09-16T16:26:17.696Z,11.10
2022-09-16T16:30:19.709Z,11.20
2022-09-16T16:34:21.269Z,11.10
2022-09-16T16:38:22.767Z,11.10
2022-09-16T16:42:24.905Z,11.00
2022-09-16T16:46:27.721Z,11.10
2022-09-16T16:50:29.340Z,11.10
2022-09-16T16:54:31.481Z,11.10
2022-09-16T16:58:35.937Z,10.80
2022-09-16T17:02:37.624Z,10.80
2022-09-16T17:06:40.230Z,10.80
2022-09-16T17:10:46.749Z,10.80
2022-09-16T17:14:48.330Z,10.80
2022-09-16T17:18:50.206Z,10.90
2022-09-16T17:22:51.839Z,10.80
2022-09-16T17:26:53.376Z,10.70
2022-09-16T17:30:56.785Z,10.60
2022-09-16T17:34:58.438Z,10.60
2022-09-16T17:39:01.939Z,10.60
2022-09-16T17:43:03.486Z,10.50
2022-09-16T17:47:05.101Z,10.40
2022-09-16T17:51:06.856Z,10.40
2022-09-16T17:55:08.519Z,10.20
2022-09-16T17:59:10.802Z,10.20
2022-09-16T18:03:12.594Z,10.20
2022-09-16T18:07:14.453Z,10.10
2022-09-16T18:11:17.169Z,10.20
2022-09-16T18:15:18.807Z,10.10
2022-09-16T18:19:20.356Z,10.10
2022-09-16T18:23:22.245Z,10.10
2022-09-16T18:27:24.346Z,10.10
2022-09-16T18:31:26.128Z,10.10
2022-09-16T18:35:27.725Z,10.10
2022-09-16T18:39:29.441Z,10.00
2022-09-16T18:43:30.969Z,10.10
2022-09-16T18:47:32.488Z,10.00
2022-09-16T18:51:38.381Z,10.10
2022-09-16T18:55:39.963Z,10.10
2022-09-16T18:59:41.576Z,10.00
2022-09-16T19:03:43.679Z,10.00
2022-09-16T19:07:45.249Z,10.00
2022-09-16T19:11:47.581Z,9.90
2022-09-16T19:15:49.118Z,9.80
2022-09-16T19:19:51.020Z,9.90
2022-09-16T19:23:57.307Z,9.90
2022-09-16T19:27:58.969Z,9.90
2022-09-16T19:32:00.710Z,9.90
2022-09-16T19:36:10.040Z,9.90
2022-09-16T19:40:11.769Z,9.90
2022-09-16T19:44:14.526Z,9.90
2022-09-16T19:48:16.047Z,9.80
2022-09-16T19:52:17.716Z,9.90
2022-09-16T19:56:21.352Z,9.80
2022-09-16T20:00:29.426Z,9.80
2022-09-16T20:04:43.123Z,9.80
2022-09-16T20:08:45.429Z,9.80
2022-09-16T20:12:47.014Z,9.70
2022-09-16T20:16:49.503Z,9.70
2022-09-16T20:20:51.128Z,9.70
2022-09-16T20:25:12.133Z,9.70
2022-09-16T20:29:14.515Z,9.60
2022-09-16T20:33:16.039Z,9.70
2022-09-16T20:37:17.653Z,9.70
2022-09-16T20:41:20.560Z,9.60
2022-09-16T20:45:22.116Z,9.50
2022-09-16T20:49:24.644Z,9.50
2022-09-16T20:53:26.138Z,9.60
2022-09-16T20:57:28.913Z,9.60
2022-09-16T21:01:31.944Z,9.50
2022-09-16T21:05:33.527Z,9.60
2022-09-16T21:09:35.220Z,9.50
2022-09-16T21:13:37.142Z,9.50
2022-09-16T21:17:38.681Z,9.50
2022-09-16T21:21:43.046Z,9.50
2022-09-16T21:25:44.556Z,9.50
2022-09-16T21:29:46.134Z,9.50
2022-09-16T21:33:49.619Z,9.50
2022-09-16T21:37:51.174Z,9.50
2022-09-16T21:41:52.752Z,9.50
2022-09-16T21:45:54.748Z,9.50
2022-09-16T21:49:57.245Z,9.50
2022-09-16T21:53:58.755Z,9.50
2022-09-16T21:58:00.489Z,9.40
2022-09-16T22:02:03.887Z,9.50
2022-09-16T22:06:07.034Z,9.50
2022-09-16T22:10:08.728Z,9.50
2022-09-16T22:14:11.278Z,9.50
2022-09-16T22:18:12.884Z,9.50
2022-09-16T22:22:14.430Z,9.40
2022-09-16T22:26:17.906Z,9.50
2022-09-16T22:30:19.424Z,9.50
2022-09-16T22:34:21.038Z,9.40
2022-09-16T22:38:22.629Z,9.40
2022-09-16T22:42:24.251Z,9.40
2022-09-16T22:46:27.469Z,9.40
2022-09-16T22:50:29.108Z,9.40
2022-09-16T22:54:31.035Z,9.40
2022-09-16T22:58:32.700Z,9.40
2022-09-16T23:02:34.250Z,9.40
2022-09-16T23:06:36.983Z,9.40
2022-09-16T23:10:38.569Z,9.40
2022-09-16T23:14:40.120Z,9.30
2022-09-16T23:18:42.600Z,9.40
2022-09-16T23:22:44.248Z,9.30
2022-09-16T23:26:47.127Z,9.30
2022-09-16T23:30:49.070Z,9.40
2022-09-16T23:34:50.903Z,9.30
2022-09-16T23:38:53.696Z,9.30
2022-09-16T23:42:58.425Z,9.30
2022-09-16T23:47:00.095Z,9.30
2022-09-16T23:51:02.433Z,9.40
2022-09-16T23:55:04.445Z,9.40
2022-09-16T23:59:06.064Z,9.50
